Time;durP1;ratioP1;P1;durP2;ratioP2;P2;SDS_P1;SDS_P2;PMS_P1;PMS_P2;Temp;Humidity;BMP_temperature;BMP_pressure;BME280_temperature;BME280_humidity;BME280_pressure;Samples;Min_cycle;Max_cycle;Signal;HPM_P1;HPM_P2
2021/12/31 00:00:05;;;;;;;3.30;1.73;;;13.40;91.80;;;;;;4980555;28;20477;-73
2021/12/31 00:02:32;;;;;;;4.27;1.57;;;13.40;91.90;;;;;;4987556;28;20524;-73
2021/12/31 00:04:59;;;;;;;2.37;1.63;;;13.30;91.80;;;;;;4975925;28;20478;-73
2021/12/31 00:07:34;;;;;;;2.30;1.23;;;13.20;91.70;;;;;;4988352;28;20439;-73
2021/12/31 00:10:08;;;;;;;2.30;1.60;;;13.10;91.90;;;;;;4978353;28;20467;-73
2021/12/31 00:12:40;;;;;;;2.00;1.13;;;13.00;91.90;;;;;;5002560;28;20443;-74
2021/12/31 00:15:09;;;;;;;2.37;1.40;;;12.90;92.20;;;;;;4981642;28;20499;-74
2021/12/31 00:17:39;;;;;;;3.20;1.67;;;12.80;92.30;;;;;;4998572;28;20486;-73
2021/12/31 00:20:15;;;;;;;2.07;1.10;;;12.80;92.40;;;;;;4981570;28;20463;-73
2021/12/31 00:23:05;;;;;;;3.53;1.53;;;12.80;92.50;;;;;;4997516;28;20526;-74
2021/12/31 00:25:34;;;;;;;2.97;1.70;;;12.80;92.40;;;;;;4979407;28;20567;-73
2021/12/31 00:28:01;;;;;;;2.63;1.30;;;12.70;92.20;;;;;;4989181;28;20461;-73
2021/12/31 00:30:31;;;;;;;2.47;1.50;;;12.70;92.80;;;;;;4987714;28;20518;-73
2021/12/31 00:32:59;;;;;;;2.40;1.57;;;12.60;92.40;;;;;;4995162;28;20452;-73
2021/12/31 00:35:26;;;;;;;2.30;1.03;;;12.60;92.60;;;;;;4998501;28;20467;-73
2021/12/31 00:37:53;;;;;;;3.80;1.27;;;12.60;92.60;;;;;;4996890;28;20488;-73
2021/12/31 00:40:22;;;;;;;2.57;1.40;;;12.50;92.70;;;;;;4979300;28;20929;-74
2021/12/31 00:42:50;;;;;;;2.10;1.40;;;12.50;92.60;;;;;;4999851;28;20505;-73
2021/12/31 00:45:19;;;;;;;4.80;1.70;;;12.50;92.70;;;;;;4998335;28;20977;-74
2021/12/31 00:47:49;;;;;;;2.10;1.20;;;12.60;92.50;;;;;;4998159;28;20448;-74
2021/12/31 00:50:16;;;;;;;2.53;1.43;;;12.50;92.30;;;;;;4979020;28;20988;-74
2021/12/31 00:52:44;;;;;;;8.87;1.80;;;12.50;92.30;;;;;;5006168;28;20457;-74
2021/12/31 00:55:12;;;;;;;2.10;1.20;;;12.50;92.20;;;;;;4998341;28;20486;-74
2021/12/31 00:57:41;;;;;;;2.80;1.30;;;12.40;92.50;;;;;;4991616;28;20542;-74
2021/12/31 01:00:15;;;;;;;2.73;1.53;;;12.40;92.40;;;;;;4978576;28;20456;-74
2021/12/31 01:02:43;;;;;;;5.00;1.33;;;12.40;92.30;;;;;;5003551;28;20451;-75
2021/12/31 01:05:13;;;;;;;2.00;1.27;;;12.40;92.40;;;;;;4997908;28;20972;-73
2021/12/31 01:07:41;;;;;;;3.00;1.50;;;12.40;92.40;;;;;;4991313;28;20448;-74
2021/12/31 01:10:12;;;;;;;2.43;1.20;;;12.40;92.10;;;;;;4978588;28;20473;-73
2021/12/31 01:12:39;;;;;;;2.70;1.37;;;12.40;92.20;;;;;;4999454;28;20455;-74
2021/12/31 01:15:11;;;;;;;2.17;1.33;;;12.40;92.30;;;;;;4979562;28;20464;-73
2021/12/31 01:18:02;;;;;;;3.00;1.33;;;12.30;92.30;;;;;;4977923;28;20500;-73
2021/12/31 01:20:31;;;;;;;2.67;1.60;;;12.30;92.20;;;;;;4975905;28;20468;-73
2021/12/31 01:23:01;;;;;;;2.20;1.20;;;12.30;92.20;;;;;;4988319;28;20455;-73
2021/12/31 01:25:29;;;;;;;11.23;1.50;;;12.20;92.20;;;;;;4978230;28;20483;-74
2021/12/31 01:27:56;;;;;;;2.77;1.20;;;12.20;92.50;;;;;;4987904;28;20456;-73
2021/12/31 01:30:23;;;;;;;2.03;1.20;;;12.20;92.50;;;;;;4977223;28;20471;-74
2021/12/31 01:32:51;;;;;;;2.90;1.87;;;12.20;92.30;;;;;;4986193;28;20502;-73
2021/12/31 01:35:21;;;;;;;2.30;1.30;;;12.20;92.40;;;;;;4994281;28;20505;-74
2021/12/31 01:37:57;;;;;;;4.13;1.40;;;12.20;92.40;;;;;;4998611;28;20476;-74
2021/12/31 01:40:24;;;;;;;2.17;1.20;;;12.20;92.30;;;;;;4977806;28;20468;-73
2021/12/31 01:42:52;;;;;;;4.90;1.47;;;12.20;92.40;;;;;;4987311;28;20447;-73
2021/12/31 01:45:21;;;;;;;2.60;1.40;;;12.20;92.30;;;;;;4978142;28;21001;-74
2021/12/31 01:48:06;;;;;;;3.15;1.60;;;12.20;92.00;;;;;;4987083;28;20502;-74
2021/12/31 01:50:39;;;;;;;2.47;1.40;;;12.10;91.90;;;;;;4978089;28;20224;-74
2021/12/31 01:53:09;;;;;;;2.55;1.52;;;12.10;91.90;;;;;;4987361;28;20217;-73
2021/12/31 01:55:36;;;;;;;2.87;1.63;;;12.00;92.10;;;;;;4978143;28;20216;-74
2021/12/31 01:58:05;;;;;;;2.27;1.23;;;12.10;91.80;;;;;;4975030;28;20481;-74
2021/12/31 02:00:33;;;;;;;3.20;1.80;;;12.00;91.80;;;;;;4971779;28;20466;-74
2021/12/31 02:03:01;;;;;;;4.83;1.80;;;12.00;91.90;;;;;;4984593;28;20938;-73
2021/12/31 02:05:29;;;;;;;3.30;1.60;;;12.00;91.80;;;;;;4978249;28;20831;-74
2021/12/31 02:07:56;;;;;;;2.28;1.40;;;12.10;91.80;;;;;;4987019;28;20868;-73
2021/12/31 02:10:27;;;;;;;2.58;1.42;;;12.00;91.90;;;;;;4977773;28;20319;-74
2021/12/31 02:12:55;;;;;;;2.30;1.40;;;11.90;92.00;;;;;;4987148;28;20193;-74
2021/12/31 02:15:24;;;;;;;2.00;1.30;;;11.80;92.20;;;;;;4977900;28;20572;-74
2021/12/31 02:17:53;;;;;;;2.73;1.20;;;11.80;92.30;;;;;;4990440;28;20487;-73
2021/12/31 02:20:23;;;;;;;5.03;1.42;;;11.80;92.40;;;;;;4978017;28;20471;-73
2021/12/31 02:22:55;;;;;;;3.07;1.30;;;11.90;92.40;;;;;;5000661;28;20192;-73
2021/12/31 02:25:28;;;;;;;3.07;1.50;;;11.90;92.50;;;;;;4997490;28;20483;-74
2021/12/31 02:27:56;;;;;;;2.57;1.43;;;11.90;92.40;;;;;;4992166;28;20451;-74
2021/12/31 02:30:23;;;;;;;2.33;1.02;;;11.90;92.20;;;;;;4978021;28;20456;-73
2021/12/31 02:32:51;;;;;;;2.20;1.10;;;11.80;91.90;;;;;;4987321;28;20211;-72
2021/12/31 02:35:23;;;;;;;2.47;1.70;;;11.70;91.80;;;;;;4977937;28;20518;-74
2021/12/31 02:37:55;;;;;;;3.03;1.23;;;11.60;92.10;;;;;;5006065;28;20220;-73
2021/12/31 02:40:26;;;;;;;2.38;1.40;;;11.70;92.20;;;;;;4982475;28;20232;-73
2021/12/31 02:42:53;;;;;;;1.60;0.90;;;11.70;91.90;;;;;;4986892;28;20200;-73
2021/12/31 02:45:28;;;;;;;3.30;1.40;;;11.70;91.80;;;;;;4990990;28;20463;-73
2021/12/31 02:47:56;;;;;;;2.67;1.50;;;11.80;91.50;;;;;;5006273;28;20694;-73
2021/12/31 02:50:33;;;;;;;3.53;1.30;;;11.70;91.70;;;;;;4983325;28;20468;-73
2021/12/31 02:53:01;;;;;;;2.70;1.13;;;11.70;91.50;;;;;;4986386;28;20192;-73
2021/12/31 02:55:31;;;;;;;2.20;1.00;;;11.70;91.50;;;;;;4990805;28;20463;-74
2021/12/31 02:57:59;;;;;;;2.43;1.13;;;11.70;91.60;;;;;;5005928;28;20278;-74
2021/12/31 03:00:28;;;;;;;1.90;0.90;;;11.80;91.50;;;;;;4983035;28;20472;-73
2021/12/31 03:02:56;;;;;;;1.70;1.00;;;11.80;91.60;;;;;;4986199;28;20224;-73
2021/12/31 03:05:29;;;;;;;3.03;1.20;;;11.70;91.60;;;;;;4988643;28;20479;-73
2021/12/31 03:07:58;;;;;;;2.70;1.58;;;11.70;91.90;;;;;;5004454;28;20889;-73
2021/12/31 03:10:27;;;;;;;2.40;1.58;;;11.70;91.90;;;;;;4996859;28;20739;-73
2021/12/31 03:13:09;;;;;;;1.80;1.08;;;11.70;91.80;;;;;;5003480;28;20197;-73
2021/12/31 03:15:37;;;;;;;2.50;1.30;;;11.70;91.90;;;;;;4977553;28;20220;-73
2021/12/31 03:18:06;;;;;;;1.83;1.00;;;11.70;92.00;;;;;;4986801;28;20897;-73
2021/12/31 03:20:41;;;;;;;2.83;1.63;;;11.70;91.90;;;;;;4988291;28;20803;-73
2021/12/31 03:23:08;;;;;;;2.00;1.40;;;11.70;91.80;;;;;;4989058;28;20187;-73
2021/12/31 03:25:36;;;;;;;4.30;2.20;;;11.60;92.10;;;;;;5001343;28;20730;-73
2021/12/31 03:28:05;;;;;;;3.70;1.90;;;11.50;92.30;;;;;;5005530;28;20559;-73
2021/12/31 03:30:36;;;;;;;4.78;3.25;;;11.50;92.40;;;;;;4995839;28;20645;-73
2021/12/31 03:33:03;;;;;;;3.45;1.60;;;11.50;92.20;;;;;;5005424;28;20196;-74
2021/12/31 03:35:30;;;;;;;3.13;2.10;;;11.50;92.20;;;;;;4996494;28;20255;-73
2021/12/31 03:37:59;;;;;;;2.47;1.50;;;11.50;92.30;;;;;;5005369;28;20242;-73
2021/12/31 03:40:30;;;;;;;2.90;1.13;;;11.60;92.10;;;;;;4995938;28;20833;-74
2021/12/31 03:42:58;;;;;;;1.93;0.80;;;11.50;92.30;;;;;;5005542;28;20558;-73
2021/12/31 03:45:26;;;;;;;2.05;1.25;;;11.50;92.40;;;;;;4996614;28;20462;-73
2021/12/31 03:47:55;;;;;;;2.83;1.40;;;11.50;92.30;;;;;;5006100;28;20203;-73
2021/12/31 03:50:25;;;;;;;2.15;1.10;;;11.50;92.50;;;;;;4996020;28;20246;-73
2021/12/31 03:52:53;;;;;;;1.77;1.10;;;11.50;92.50;;;;;;4998310;28;20212;-74
2021/12/31 03:55:22;;;;;;;2.03;0.95;;;11.40;92.60;;;;;;4995699;28;20227;-73
2021/12/31 03:57:50;;;;;;;1.98;1.15;;;11.40;92.70;;;;;;5009647;28;20235;-73
2021/12/31 04:00:18;;;;;;;2.42;1.45;;;11.40;92.80;;;;;;4981751;28;20248;-73
2021/12/31 04:02:46;;;;;;;1.85;0.90;;;11.40;92.80;;;;;;4992961;28;20203;-73
2021/12/31 04:05:13;;;;;;;2.05;0.85;;;11.40;92.70;;;;;;4983477;28;20296;-73
2021/12/31 04:07:40;;;;;;;2.43;1.00;;;11.40;92.80;;;;;;5009731;28;20199;-73
2021/12/31 04:10:14;;;;;;;2.30;1.37;;;11.40;92.80;;;;;;4996922;28;20448;-73
2021/12/31 04:12:42;;;;;;;3.95;1.63;;;11.40;92.60;;;;;;4989831;28;20447;-73
2021/12/31 04:15:10;;;;;;;2.70;1.65;;;11.40;92.40;;;;;;4982072;28;20258;-73
2021/12/31 04:17:40;;;;;;;2.85;1.42;;;11.30;92.70;;;;;;5003742;28;20271;-73
2021/12/31 04:20:19;;;;;;;2.42;1.00;;;11.40;92.60;;;;;;4980128;28;20201;-74
2021/12/31 04:22:52;;;;;;;2.43;0.70;;;11.30;92.40;;;;;;4983625;28;20538;-73
2021/12/31 04:25:20;;;;;;;2.20;0.73;;;11.40;92.20;;;;;;4963747;28;20554;-74
2021/12/31 04:27:49;;;;;;;2.55;1.10;;;11.30;92.30;;;;;;4989278;28;20478;-73
2021/12/31 04:30:16;;;;;;;1.90;0.93;;;11.20;92.40;;;;;;4980575;28;20204;-73
2021/12/31 04:32:45;;;;;;;2.20;0.95;;;11.20;92.20;;;;;;4983594;28;20227;-73
2021/12/31 04:35:13;;;;;;;2.45;1.40;;;11.10;92.20;;;;;;4962289;28;20204;-73
2021/12/31 04:37:42;;;;;;;2.17;1.10;;;11.10;92.00;;;;;;5003355;28;20200;-73
2021/12/31 04:40:12;;;;;;;2.97;1.65;;;11.10;91.70;;;;;;4979756;28;20256;-72
2021/12/31 04:42:41;;;;;;;3.78;1.80;;;11.00;91.80;;;;;;4989037;28;20195;-74
2021/12/31 04:45:11;;;;;;;2.55;1.30;;;10.90;91.70;;;;;;4980174;28;20209;-73
2021/12/31 04:47:38;;;;;;;1.90;1.00;;;10.70;91.90;;;;;;4985437;28;20197;-73
2021/12/31 04:50:07;;;;;;;2.13;1.00;;;10.70;91.80;;;;;;4979911;28;20546;-74
2021/12/31 04:52:35;;;;;;;1.50;0.70;;;10.70;91.60;;;;;;4988023;28;20201;-73
2021/12/31 04:55:02;;;;;;;1.75;0.90;;;10.60;91.70;;;;;;4986285;28;20252;-73
2021/12/31 04:57:32;;;;;;;2.00;1.20;;;10.60;91.80;;;;;;4984746;28;20206;-72
2021/12/31 05:00:00;;;;;;;2.58;1.25;;;10.50;91.40;;;;;;4970720;28;20751;-73
2021/12/31 05:02:29;;;;;;;1.60;0.75;;;10.40;91.10;;;;;;4978293;28;20221;-73
2021/12/31 05:04:58;;;;;;;3.28;1.45;;;10.30;91.20;;;;;;4990420;28;20189;-73
2021/12/31 05:07:25;;;;;;;1.77;0.95;;;10.20;91.00;;;;;;4974624;28;20284;-73
2021/12/31 05:09:53;;;;;;;1.58;0.85;;;10.20;90.80;;;;;;4970833;28;20206;-74
2021/12/31 05:12:26;;;;;;;1.80;0.90;;;10.00;91.10;;;;;;4990510;28;20233;-73
2021/12/31 05:14:53;;;;;;;2.22;1.02;;;10.00;91.00;;;;;;4989663;28;20666;-72
2021/12/31 05:17:20;;;;;;;1.80;1.08;;;10.00;91.00;;;;;;4980348;28;20247;-74
2021/12/31 05:19:49;;;;;;;2.20;1.25;;;9.90;91.60;;;;;;5009271;28;20216;-73
2021/12/31 05:22:20;;;;;;;3.92;1.10;;;9.80;91.60;;;;;;4998482;28;20722;-73
2021/12/31 05:24:52;;;;;;;2.03;1.17;;;9.70;91.70;;;;;;5008736;28;20286;-73
2021/12/31 05:27:19;;;;;;;1.60;0.80;;;9.60;91.60;;;;;;4998831;28;20756;-73
2021/12/31 05:29:49;;;;;;;2.65;0.93;;;9.50;91.80;;;;;;5008328;28;20548;-73
2021/12/31 05:32:18;;;;;;;2.35;0.88;;;9.40;91.80;;;;;;5006991;28;20228;-73
2021/12/31 05:34:45;;;;;;;4.05;1.08;;;9.30;91.80;;;;;;4989358;28;20193;-73
2021/12/31 05:37:14;;;;;;;2.97;0.90;;;9.20;91.80;;;;;;4982536;28;20749;-73
2021/12/31 05:39:43;;;;;;;3.15;1.40;;;9.10;91.90;;;;;;5009033;28;20802;-73
2021/12/31 05:42:10;;;;;;;3.40;1.20;;;9.10;92.00;;;;;;4984800;28;20212;-73
2021/12/31 05:44:38;;;;;;;4.00;1.08;;;9.10;92.00;;;;;;5012162;28;20203;-73
2021/12/31 05:47:05;;;;;;;4.28;1.60;;;9.00;92.10;;;;;;4997526;28;20193;-73
2021/12/31 05:49:33;;;;;;;1.60;0.80;;;9.00;92.00;;;;;;4996521;28;20218;-73
2021/12/31 05:52:01;;;;;;;4.50;1.80;;;9.00;91.80;;;;;;5014199;28;20214;-73
2021/12/31 05:54:30;;;;;;;2.20;1.20;;;9.00;91.90;;;;;;5006472;28;20198;-73
2021/12/31 05:56:58;;;;;;;2.95;1.45;;;9.00;91.90;;;;;;4994622;28;20193;-73
2021/12/31 05:59:25;;;;;;;4.35;1.92;;;8.90;91.90;;;;;;5000040;28;20748;-73
2021/12/31 06:01:52;;;;;;;13.75;8.63;;;9.00;91.70;;;;;;5013963;28;20279;-73
2021/12/31 06:04:20;;;;;;;4.40;2.83;;;9.00;91.80;;;;;;5008657;28;20188;-73
2021/12/31 06:06:47;;;;;;;3.20;1.48;;;9.00;91.90;;;;;;5000633;28;20192;-73
2021/12/31 06:09:14;;;;;;;4.80;1.40;;;9.00;91.90;;;;;;4996841;28;20671;-74
2021/12/31 06:11:43;;;;;;;3.72;2.25;;;9.00;91.80;;;;;;5002532;28;20549;-73
2021/12/31 06:14:19;;;;;;;3.00;1.85;;;9.00;91.50;;;;;;5008259;28;20236;-74
2021/12/31 06:16:48;;;;;;;4.38;2.60;;;9.00;90.90;;;;;;5011452;28;20230;-74
2021/12/31 06:19:15;;;;;;;3.70;2.10;;;8.90;90.80;;;;;;5012496;28;20220;-74
2021/12/31 06:21:44;;;;;;;4.47;2.20;;;8.90;90.60;;;;;;5010790;28;20857;-73
2021/12/31 06:24:12;;;;;;;4.25;2.35;;;8.90;90.90;;;;;;5011607;28;20185;-74
2021/12/31 06:26:39;;;;;;;2.95;1.95;;;8.80;90.90;;;;;;5013073;28;20188;-74
2021/12/31 06:29:08;;;;;;;4.82;2.35;;;8.80;91.10;;;;;;4998097;28;20203;-73
2021/12/31 06:31:36;;;;;;;5.55;2.40;;;8.80;91.10;;;;;;5012499;28;20231;-74
2021/12/31 06:34:03;;;;;;;7.13;2.30;;;8.70;91.10;;;;;;5013667;28;20204;-73
2021/12/31 06:36:31;;;;;;;4.82;2.40;;;8.60;91.20;;;;;;5013388;28;20200;-74
2021/12/31 06:39:02;;;;;;;5.22;2.15;;;8.60;91.40;;;;;;5013342;28;20219;-74
2021/12/31 06:41:29;;;;;;;9.43;3.08;;;8.50;90.70;;;;;;5012625;28;20311;-74
2021/12/31 06:43:57;;;;;;;4.82;2.63;;;8.40;90.70;;;;;;5013602;28;20209;-74
2021/12/31 06:46:25;;;;;;;4.28;2.20;;;8.40;90.90;;;;;;5012046;28;20216;-73
2021/12/31 06:48:53;;;;;;;6.20;2.80;;;8.40;91.10;;;;;;5012892;28;20579;-73
2021/12/31 06:51:20;;;;;;;8.98;3.00;;;8.40;90.90;;;;;;5012691;28;20698;-73
2021/12/31 06:53:48;;;;;;;6.72;3.22;;;8.30;90.80;;;;;;5013020;28;20184;-74
2021/12/31 06:56:15;;;;;;;3.97;1.88;;;8.30;91.00;;;;;;5013273;28;20200;-74
2021/12/31 06:58:43;;;;;;;5.00;2.15;;;8.30;91.20;;;;;;5012596;28;20215;-73
2021/12/31 07:01:11;;;;;;;6.68;3.83;;;8.20;91.30;;;;;;5012761;28;20199;-73
2021/12/31 07:03:40;;;;;;;5.72;3.03;;;8.20;91.10;;;;;;5012620;28;20180;-74
2021/12/31 07:06:07;;;;;;;6.50;3.80;;;8.20;91.10;;;;;;5012583;28;20196;-74
2021/12/31 07:08:34;;;;;;;8.90;4.63;;;8.20;90.90;;;;;;5012645;28;20662;-74
2021/12/31 07:11:02;;;;;;;5.10;3.72;;;8.20;91.10;;;;;;5012925;28;20618;-73
2021/12/31 07:13:29;;;;;;;7.57;4.47;;;8.10;91.40;;;;;;5012480;28;20254;-74
2021/12/31 07:15:56;;;;;;;7.88;5.97;;;8.10;91.50;;;;;;5012330;28;20188;-73
2021/12/31 07:18:24;;;;;;;5.05;3.50;;;8.10;91.30;;;;;;5012249;28;20224;-73
2021/12/31 07:20:57;;;;;;;7.45;4.28;;;8.10;90.90;;;;;;5013187;28;20196;-73
2021/12/31 07:23:28;;;;;;;5.35;4.05;;;8.10;90.80;;;;;;5012550;28;20188;-73
2021/12/31 07:26:08;;;;;;;6.00;4.22;;;8.10;90.70;;;;;;5013024;28;20584;-73
2021/12/31 07:28:35;;;;;;;7.82;4.63;;;8.10;91.30;;;;;;5011518;28;20191;-73
2021/12/31 07:31:03;;;;;;;7.13;3.90;;;8.30;91.70;;;;;;5016341;28;20616;-74
2021/12/31 07:33:30;;;;;;;6.05;3.95;;;8.60;91.80;;;;;;5016387;28;20231;-74
2021/12/31 07:36:02;;;;;;;6.43;5.20;;;8.90;91.80;;;;;;5016885;28;20196;-74
2021/12/31 07:38:34;;;;;;;9.85;4.60;;;9.30;91.00;;;;;;5016029;28;20192;-74
2021/12/31 07:41:02;;;;;;;11.00;5.85;;;9.70;89.30;;;;;;5016340;28;20200;-74
2021/12/31 07:43:30;;;;;;;6.88;4.63;;;10.00;86.20;;;;;;5015721;28;20195;-74
2021/12/31 07:45:57;;;;;;;6.25;3.88;;;10.20;84.70;;;;;;5015110;28;20192;-74
2021/12/31 07:48:25;;;;;;;8.10;4.68;;;10.40;85.20;;;;;;5016115;28;20188;-74
2021/12/31 07:50:58;;;;;;;8.15;5.60;;;10.50;84.30;;;;;;5015216;28;20184;-74
2021/12/31 07:53:30;;;;;;;7.65;4.60;;;10.70;82.60;;;;;;4996753;28;20220;-74
2021/12/31 07:55:57;;;;;;;7.80;4.88;;;10.80;80.00;;;;;;5000265;28;20379;-74
2021/12/31 07:58:25;;;;;;;8.07;5.15;;;10.90;78.80;;;;;;5016250;28;20196;-73
2021/12/31 08:01:01;;;;;;;10.27;6.60;;;10.80;79.40;;;;;;5015846;28;20278;-73
2021/12/31 08:03:31;;;;;;;11.10;6.78;;;10.80;79.00;;;;;;5015936;28;20639;-74
2021/12/31 08:05:58;;;;;;;9.90;6.63;;;10.80;78.10;;;;;;5015747;28;20185;-74
2021/12/31 08:08:27;;;;;;;7.38;5.60;;;10.50;78.10;;;;;;5016231;28;20207;-74
2021/12/31 08:10:54;;;;;;;5.82;4.57;;;10.30;78.80;;;;;;5015779;28;20204;-73
2021/12/31 08:13:22;;;;;;;9.02;3.85;;;10.20;78.60;;;;;;5016137;28;20201;-74
2021/12/31 08:15:49;;;;;;;14.95;9.75;;;10.00;79.70;;;;;;5015644;28;20562;-75
2021/12/31 08:18:17;;;;;;;10.65;7.75;;;9.80;81.30;;;;;;5015532;28;20582;-74
2021/12/31 08:20:44;;;;;;;17.50;7.50;;;9.80;82.20;;;;;;5015804;28;20224;-73
2021/12/31 08:23:13;;;;;;;8.35;6.60;;;9.80;83.00;;;;;;5015717;28;20211;-74
2021/12/31 08:25:42;;;;;;;7.88;4.95;;;9.70;83.70;;;;;;5015908;28;20275;-74
2021/12/31 08:28:10;;;;;;;6.47;4.05;;;9.70;84.00;;;;;;5007632;28;20188;-73
2021/12/31 08:30:38;;;;;;;4.57;3.70;;;9.70;84.20;;;;;;5001177;28;20583;-73
2021/12/31 08:33:05;;;;;;;9.35;3.50;;;9.80;84.80;;;;;;4994317;28;20207;-74
2021/12/31 08:35:32;;;;;;;3.10;2.25;;;9.80;84.50;;;;;;4994947;28;20685;-74
2021/12/31 08:38:00;;;;;;;4.82;3.38;;;9.90;85.30;;;;;;4994641;28;20291;-74
2021/12/31 08:40:27;;;;;;;4.82;2.95;;;10.00;84.30;;;;;;5012732;28;20224;-75
2021/12/31 08:42:55;;;;;;;4.60;3.50;;;10.10;84.00;;;;;;5012333;28;20192;-73
2021/12/31 08:45:24;;;;;;;4.10;2.45;;;10.20;84.20;;;;;;5012897;28;20259;-74
2021/12/31 08:47:52;;;;;;;3.45;2.17;;;10.40;83.40;;;;;;5011974;28;20188;-73
2021/12/31 08:50:19;;;;;;;2.92;1.90;;;10.60;82.70;;;;;;5008622;28;20192;-75
2021/12/31 08:52:47;;;;;;;3.00;2.15;;;11.00;82.00;;;;;;5012476;28;20237;-75
2021/12/31 08:55:14;;;;;;;12.23;9.60;;;11.50;81.70;;;;;;5012254;28;20184;-74
2021/12/31 08:57:42;;;;;;;6.95;5.13;;;12.10;80.10;;;;;;5011742;28;20236;-74
2021/12/31 09:00:12;;;;;;;3.67;1.88;;;12.50;77.60;;;;;;5011961;28;20216;-74
2021/12/31 09:02:40;;;;;;;1.87;1.10;;;13.00;72.40;;;;;;4996000;28;20247;-74
2021/12/31 09:05:08;;;;;;;2.43;1.50;;;13.30;71.20;;;;;;4995862;28;20440;-74
2021/12/31 09:07:35;;;;;;;2.50;1.53;;;13.70;70.00;;;;;;5008258;28;20501;-74
2021/12/31 09:10:02;;;;;;;2.13;1.43;;;14.00;69.70;;;;;;5012360;28;20501;-75
2021/12/31 09:12:29;;;;;;;2.83;1.50;;;14.40;69.20;;;;;;5011653;28;20497;-74
2021/12/31 09:14:56;;;;;;;4.10;2.47;;;14.70;68.20;;;;;;5012372;28;20439;-74
2021/12/31 09:17:24;;;;;;;2.27;1.40;;;15.10;67.60;;;;;;5008237;28;21055;-74
2021/12/31 09:19:51;;;;;;;7.10;3.50;;;15.40;65.80;;;;;;5012576;28;21031;-74
2021/12/31 09:22:18;;;;;;;10.07;8.10;;;15.70;66.10;;;;;;5008907;28;20483;-75
2021/12/31 09:24:45;;;;;;;3.30;1.80;;;16.00;63.20;;;;;;5011708;28;20475;-74
2021/12/31 09:27:12;;;;;;;4.30;2.60;;;16.30;61.00;;;;;;5011556;28;20443;-75
2021/12/31 09:29:43;;;;;;;4.20;3.40;;;16.50;60.60;;;;;;5012527;28;20443;-75
2021/12/31 09:32:10;;;;;;;3.20;1.40;;;16.80;63.00;;;;;;5012189;28;20506;-74
2021/12/31 09:34:42;;;;;;;1.70;1.00;;;17.30;61.40;;;;;;5010908;28;20462;-74
2021/12/31 09:37:10;;;;;;;2.73;1.53;;;17.60;57.50;;;;;;4994337;28;20482;-75
2021/12/31 09:39:37;;;;;;;2.33;1.60;;;17.60;55.60;;;;;;5011450;28;20473;-75
2021/12/31 09:42:05;;;;;;;5.77;3.50;;;17.60;53.40;;;;;;5013325;28;20474;-72
2021/12/31 09:44:33;;;;;;;5.53;1.47;;;17.70;55.40;;;;;;5011037;28;20475;-75
2021/12/31 09:47:04;;;;;;;2.30;1.30;;;18.10;56.50;;;;;;5012237;28;20897;-75
2021/12/31 09:49:31;;;;;;;5.70;4.10;;;18.20;51.80;;;;;;5011369;28;20514;-74
2021/12/31 09:52:00;;;;;;;2.43;1.40;;;18.30;51.70;;;;;;5009929;28;20825;-74
2021/12/31 09:54:27;;;;;;;4.60;1.60;;;18.60;52.80;;;;;;5011164;28;20902;-74
2021/12/31 09:56:57;;;;;;;3.90;2.30;;;18.90;50.50;;;;;;5007994;28;20483;-75
2021/12/31 09:59:27;;;;;;;3.80;2.20;;;19.30;51.40;;;;;;5000431;28;20440;-74
2021/12/31 10:01:55;;;;;;;3.50;1.93;;;19.90;50.60;;;;;;5000566;28;20451;-74
2021/12/31 10:04:23;;;;;;;3.50;1.90;;;20.30;48.80;;;;;;4993148;28;20502;-74
2021/12/31 10:07:09;;;;;;;20.20;13.17;;;20.50;45.80;;;;;;4994435;28;20494;-74
2021/12/31 10:09:38;;;;;;;2.20;0.90;;;20.60;45.30;;;;;;4993054;28;20487;-74
2021/12/31 10:12:07;;;;;;;9.93;4.90;;;20.70;44.50;;;;;;5009007;28;20534;-75
2021/12/31 10:14:35;;;;;;;36.73;26.53;;;20.70;43.00;;;;;;5012117;28;20456;-74
2021/12/31 10:17:02;;;;;;;5.80;3.50;;;20.70;44.20;;;;;;4998656;28;20563;-75
2021/12/31 10:19:29;;;;;;;2.87;1.60;;;20.80;43.00;;;;;;4992933;28;20456;-74
2021/12/31 10:21:56;;;;;;;2.87;1.97;;;20.60;40.90;;;;;;4997355;28;20468;-74
2021/12/31 10:24:34;;;;;;;3.47;0.90;;;20.60;41.90;;;;;;4993424;28;20455;-74
2021/12/31 10:27:16;;;;;;;2.40;1.13;;;20.80;42.60;;;;;;5010962;28;20493;-74
2021/12/31 10:29:52;;;;;;;2.87;1.50;;;20.90;42.90;;;;;;5011565;28;20447;-75
2021/12/31 10:32:22;;;;;;;2.50;1.50;;;21.40;44.40;;;;;;4996456;28;20460;-75
2021/12/31 10:34:52;;;;;;;4.87;1.80;;;21.80;42.70;;;;;;4993291;28;20436;-74
2021/12/31 10:37:27;;;;;;;2.53;1.17;;;22.10;40.60;;;;;;4996794;28;20879;-75
2021/12/31 10:40:01;;;;;;;2.33;1.00;;;22.20;40.90;;;;;;4992899;28;20519;-76
2021/12/31 10:42:29;;;;;;;2.50;1.30;;;22.50;41.40;;;;;;4992946;28;20440;-73
2021/12/31 10:45:01;;;;;;;1.83;0.90;;;22.70;39.70;;;;;;4992956;28;20471;-74
2021/12/31 10:47:31;;;;;;;1.80;0.80;;;22.90;40.60;;;;;;4993089;28;20532;-75
2021/12/31 10:50:13;;;;;;;1.63;0.70;;;23.00;38.40;;;;;;4993875;28;20444;-74
2021/12/31 10:52:46;;;;;;;1.73;0.73;;;22.70;38.00;;;;;;5011360;28;20431;-73
2021/12/31 10:55:19;;;;;;;1.80;0.60;;;22.60;39.10;;;;;;4997151;28;20439;-75
2021/12/31 10:57:47;;;;;;;1.50;0.60;;;22.80;38.40;;;;;;5006136;28;20475;-75
2021/12/31 11:00:16;;;;;;;1.40;0.60;;;22.80;38.10;;;;;;5010374;28;21027;-72
2021/12/31 11:03:04;;;;;;;1.97;0.93;;;23.10;37.70;;;;;;5010337;28;20434;-75
2021/12/31 11:05:41;;;;;;;3.83;0.70;;;23.20;37.20;;;;;;5008542;28;20435;-74
2021/12/31 11:08:14;;;;;;;2.57;0.80;;;23.40;37.20;;;;;;5007137;28;20933;-75
2021/12/31 11:10:43;;;;;;;1.73;0.70;;;23.60;37.20;;;;;;5010638;28;20509;-74
2021/12/31 11:13:19;;;;;;;2.40;1.00;;;23.70;36.20;;;;;;5010350;28;20802;-75
2021/12/31 11:15:49;;;;;;;3.00;1.30;;;23.70;36.20;;;;;;4998752;28;20455;-74
2021/12/31 11:18:46;;;;;;;1.80;0.90;;;23.60;35.90;;;;;;4998511;28;20470;-74
2021/12/31 11:21:16;;;;;;;1.80;0.90;;;23.40;35.90;;;;;;5000070;28;20479;-75
2021/12/31 11:23:45;;;;;;;2.20;0.87;;;23.70;36.60;;;;;;4991579;28;20440;-74
2021/12/31 11:26:13;;;;;;;2.50;1.30;;;24.20;37.10;;;;;;5000853;28;20447;-75
2021/12/31 11:28:42;;;;;;;3.33;1.40;;;24.40;35.50;;;;;;4991326;28;20977;-74
2021/12/31 11:31:23;;;;;;;3.57;0.90;;;24.10;35.40;;;;;;4995566;28;20482;-74
2021/12/31 11:34:15;;;;;;;1.80;0.90;;;24.30;35.70;;;;;;4992607;28;20444;-73
2021/12/31 11:36:43;;;;;;;1.90;0.80;;;24.20;34.80;;;;;;5009238;28;20505;-74
2021/12/31 11:39:22;;;;;;;1.97;0.90;;;24.20;35.20;;;;;;4996378;28;20483;-73
2021/12/31 11:41:56;;;;;;;2.00;0.80;;;24.40;35.10;;;;;;5000614;28;20522;-73
2021/12/31 11:44:26;;;;;;;2.27;1.17;;;24.50;35.30;;;;;;4981321;28;20483;-74
2021/12/31 11:47:10;;;;;;;1.87;1.03;;;24.40;34.80;;;;;;4983000;28;20454;-73
2021/12/31 11:49:40;;;;;;;2.33;1.07;;;24.70;36.30;;;;;;4998073;28;20521;-73
2021/12/31 11:52:09;;;;;;;1.77;0.93;;;25.20;34.60;;;;;;5004282;28;20486;-74
2021/12/31 11:54:43;;;;;;;2.70;0.90;;;25.20;34.20;;;;;;4990778;28;20455;-74
2021/12/31 11:57:29;;;;;;;2.10;1.03;;;25.50;35.10;;;;;;4980788;28;20451;-73
2021/12/31 12:00:04;;;;;;;2.77;0.80;;;25.60;33.10;;;;;;4998921;28;20485;-73
2021/12/31 12:02:41;;;;;;;1.90;0.80;;;25.70;33.40;;;;;;4999098;28;20967;-72
2021/12/31 12:05:15;;;;;;;1.77;0.80;;;25.60;33.80;;;;;;4987443;28;20446;-74
2021/12/31 12:07:49;;;;;;;1.93;0.83;;;25.70;32.40;;;;;;4987085;28;20490;-73
2021/12/31 12:10:28;;;;;;;4.30;1.60;;;25.20;32.70;;;;;;5006418;28;20548;-73
2021/12/31 12:13:23;;;;;;;1.60;0.70;;;25.00;33.60;;;;;;4993401;28;20444;-73
2021/12/31 12:15:56;;;;;;;2.43;0.83;;;24.80;32.70;;;;;;4992431;28;20454;-73
2021/12/31 12:18:52;;;;;;;1.80;0.93;;;24.70;34.20;;;;;;4989539;28;20475;-72
2021/12/31 12:21:35;;;;;;;5.93;0.90;;;24.70;33.90;;;;;;4991277;28;21246;-74
2021/12/31 12:24:04;;;;;;;2.27;1.10;;;24.60;33.20;;;;;;5001671;28;20447;-73
2021/12/31 12:26:34;;;;;;;2.10;0.83;;;24.00;33.70;;;;;;4994212;28;20483;-73
2021/12/31 12:29:04;;;;;;;1.97;0.83;;;23.70;34.20;;;;;;4991614;28;20939;-74
2021/12/31 12:31:38;;;;;;;1.90;0.87;;;23.70;34.40;;;;;;4990426;28;20502;-73
2021/12/31 12:34:10;;;;;;;1.60;0.70;;;23.50;35.30;;;;;;4991885;28;20494;-73
2021/12/31 12:36:38;;;;;;;4.30;1.10;;;23.50;35.70;;;;;;4992881;28;20974;-73
2021/12/31 12:39:13;;;;;;;1.83;0.60;;;23.40;35.70;;;;;;5006525;28;20466;-73
2021/12/31 12:41:42;;;;;;;1.70;0.80;;;23.30;35.90;;;;;;5008055;28;20911;-73
2021/12/31 12:44:11;;;;;;;2.10;0.70;;;23.10;36.30;;;;;;5003012;28;20494;-72
2021/12/31 12:46:54;;;;;;;1.87;0.70;;;22.60;37.20;;;;;;4989064;28;21166;-73
2021/12/31 12:49:24;;;;;;;2.30;0.93;;;22.20;37.80;;;;;;4991999;28;21027;-72
2021/12/31 12:51:52;;;;;;;3.30;1.10;;;22.10;38.70;;;;;;4990660;28;20440;-73
2021/12/31 12:54:26;;;;;;;2.57;1.10;;;22.20;39.40;;;;;;4992594;28;20447;-73
2021/12/31 12:57:03;;;;;;;2.53;1.47;;;22.30;37.90;;;;;;4992340;28;20472;-73
2021/12/31 12:59:37;;;;;;;2.47;1.23;;;22.10;38.20;;;;;;4991959;28;20443;-72
2021/12/31 13:02:27;;;;;;;3.97;2.10;;;22.00;39.10;;;;;;4993872;28;20490;-73